VVNB Airport Information

Runway Information
Runway 11L Length 12466 ft width 148 ft
Elevation 40 ft Threshold 0 ft Heading 107
Runway 29R Length 12466 ft Width 148 ft
Elevation 40 ft Threshold 0 ft Heading 287
Runway 11R Length 12466 ft width 148 ft
Elevation 38 ft Threshold 0 ft Heading 107
Runway 29L Length 12466 ft Width 148 ft
Elevation 39 ft Threshold 0 ft Heading 287
Airport Frequencies
Type APP Name APP Frequency 125.1 MHZ
Type GND Name GND Frequency 121.9 MHZ
Type TWR Name TWR Frequency 118.2 MHZ
Airport Navaids
Type NDB Name Noibai Frequency 230 KHZ
Type NDB Name Noibai Frequency 320 KHZ
Type VOR-DME Name Noibai Frequency 116100 KHZ
Airport Weather Information & NOTAM
ADDS - METARS form results

(1556 UTC 07 May 2021)
Data provider http://aviationweather.gov/metar/data/
 
METAR text: VVNB 071530Z 12007KT CAVOK 27/24 Q1011 NOSIG
Conditions at: VVNB (HANOI/NOIBAI INT, VN) observed 1530 UTC 07 May 2021
Temperature: 27.0°C (81°F)
Dewpoint: 24.0°C (75°F) [RH = 84%]
Pressure (altimeter): 29.85 inches Hg (1011.0 mb)
Winds: from the ESE (120 degrees) at 8 MPH (7 knots; 3.6 m/s)
Visibility: 6 or more miles (10+ km)
Ceiling: ceiling and visibility are OK
Clouds: unknown
Weather: no significant weather observed at this time

METAR text: VVNB 071500Z 13007KT CAVOK 27/24 Q1011 NOSIG
Conditions at: VVNB (HANOI/NOIBAI INT, VN) observed 1500 UTC 07 May 2021
Temperature: 27.0°C (81°F)
Dewpoint: 24.0°C (75°F) [RH = 84%]
Pressure (altimeter): 29.85 inches Hg (1011.0 mb)
Winds: from the SE (130 degrees) at 8 MPH (7 knots; 3.6 m/s)
Visibility: 6 or more miles (10+ km)
Ceiling: ceiling and visibility are OK
Clouds: unknown
Weather: no significant weather observed at this time

Forecast for: VVNB (HANOI/NOIBAI INT, VN)
Text: TAF VVNB 071100Z 0712/0812 12010KT 7000 SCT020
Forecast period: 1200 to 2100 UTC 07 May 2021
Forecast type: FROM: standard forecast or significant change
Winds: from the ESE (120 degrees) at 12 MPH (10 knots; 5.1 m/s)
Visibility: 4 miles (7 km)
Ceiling: at least 12,000 feet AGL
Clouds: scattered clouds at 2000 feet AGL
Weather: no significant weather forecast for this period
Text: BECMG 0721/0722 3500 BR
Forecast period: 2100 UTC 07 May 2021 to 0100 UTC 08 May 2021
Forecast type: BECOMING: Conditions expected to become as follows by 2200 UTC 07 May 2021
Winds: from the ESE (120 degrees) at 12 MPH (10 knots; 5.1 m/s)
Visibility: 2.17 miles (3.49 km)
Ceiling: at least 12,000 feet AGL
Clouds: scattered clouds at 2000 feet AGL
Weather: BR  (mist)
Text: BECMG 0801/0802 7000 NSW
Forecast period: 0100 to 1200 UTC 08 May 2021
Forecast type: BECOMING: Conditions expected to become as follows by 0200 UTC 08 May 2021
Winds: from the ESE (120 degrees) at 12 MPH (10 knots; 5.1 m/s)
Visibility: 4 miles (7 km)
Ceiling: at least 12,000 feet AGL
Clouds: scattered clouds at 2000 feet AGL
Weather: NSW  (no significant weather)